createdAt,value
2019-03-08T00:00:08.239Z,1.20
2019-03-08T00:01:08.220Z,1.40
2019-03-08T00:02:08.210Z,1.30
2019-03-08T00:03:08.205Z,1.30
2019-03-08T00:04:08.206Z,1.50
2019-03-08T00:05:08.225Z,1.20
2019-03-08T00:06:08.237Z,1.50
2019-03-08T00:07:08.159Z,1.40
2019-03-08T00:08:08.167Z,1.30
2019-03-08T00:09:08.993Z,1.40
2019-03-08T00:10:08.124Z,1.10
2019-03-08T00:11:08.125Z,1.30
2019-03-08T00:12:08.144Z,1.50
2019-03-08T00:13:08.088Z,1.90
2019-03-08T00:14:08.110Z,1.30
2019-03-08T00:15:08.078Z,1.40
2019-03-08T00:16:08.137Z,1.40
2019-03-08T00:17:08.092Z,1.20
2019-03-08T00:18:08.075Z,1.40
2019-03-08T00:19:10.083Z,1.60
2019-03-08T00:20:08.037Z,1.40
2019-03-08T00:21:08.006Z,1.20
2019-03-08T00:22:08.010Z,1.30
2019-03-08T00:23:08.053Z,1.20
2019-03-08T00:24:07.971Z,1.10
2019-03-08T00:25:07.992Z,1.70
2019-03-08T00:26:07.961Z,1.40
2019-03-08T00:27:07.958Z,1.90
2019-03-08T00:28:07.941Z,1.50
2019-03-08T00:29:16.612Z,1.20
2019-03-08T00:30:17.499Z,1.50
2019-03-08T00:32:47.502Z,1.40
2019-03-08T00:33:47.465Z,1.20
2019-03-08T00:34:47.457Z,1.30
2019-03-08T00:35:47.417Z,1.20
2019-03-08T00:36:47.460Z,1.30
2019-03-08T00:37:47.363Z,1.70
2019-03-08T00:38:47.356Z,1.40
2019-03-08T00:39:47.349Z,1.20
2019-03-08T00:40:47.351Z,1.20
2019-03-08T00:41:47.322Z,1.20
2019-03-08T00:42:47.313Z,1.30
2019-03-08T00:43:47.372Z,1.30
2019-03-08T00:44:47.302Z,1.30
2019-03-08T00:45:47.319Z,1.40
2019-03-08T00:46:47.281Z,1.40
2019-03-08T00:47:47.284Z,1.30
2019-03-08T00:48:47.245Z,1.50
2019-03-08T00:49:47.246Z,1.40
2019-03-08T00:50:47.227Z,1.60
2019-03-08T00:51:47.250Z,1.80
2019-03-08T00:52:47.266Z,1.90
2019-03-08T00:53:47.193Z,1.40
2019-03-08T00:54:47.181Z,1.40
2019-03-08T00:55:47.167Z,1.40
2019-03-08T00:56:47.262Z,1.30
2019-03-08T00:57:47.165Z,1.30
2019-03-08T00:58:47.145Z,1.60
2019-03-08T00:59:47.169Z,1.40
2019-03-08T01:00:47.113Z,1.10
2019-03-08T01:01:47.142Z,1.30
2019-03-08T01:02:47.101Z,1.40
2019-03-08T01:03:47.086Z,1.20
2019-03-08T01:04:47.088Z,1.30
2019-03-08T01:05:47.063Z,1.40
2019-03-08T01:06:47.078Z,1.50
2019-03-08T01:07:47.042Z,1.30
2019-03-08T01:08:47.038Z,1.20
2019-03-08T01:09:47.048Z,1.30
2019-03-08T01:10:47.048Z,1.20
2019-03-08T01:11:46.997Z,1.30
2019-03-08T01:12:47.003Z,1.40
2019-03-08T01:13:46.983Z,1.40
2019-03-08T01:14:46.970Z,1.30
2019-03-08T01:15:46.967Z,1.60
2019-03-08T01:16:46.958Z,1.30
2019-03-08T01:17:46.991Z,1.40
2019-03-08T01:18:46.922Z,1.30
2019-03-08T01:19:46.920Z,1.50
2019-03-08T01:20:46.902Z,1.30
2019-03-08T01:21:46.931Z,1.30
2019-03-08T01:22:46.907Z,1.50
2019-03-08T01:23:46.884Z,1.50
2019-03-08T01:24:46.857Z,1.40
2019-03-08T01:25:46.845Z,1.50
2019-03-08T01:26:46.866Z,1.50
2019-03-08T01:27:46.863Z,1.50
2019-03-08T01:28:46.819Z,1.30
2019-03-08T01:29:46.844Z,1.50
2019-03-08T01:30:46.792Z,1.30
2019-03-08T01:31:46.791Z,1.20
2019-03-08T01:32:46.791Z,1.30
2019-03-08T01:33:46.758Z,1.00
2019-03-08T01:34:46.752Z,1.20
2019-03-08T01:35:46.738Z,1.40
2019-03-08T01:36:46.730Z,1.10
2019-03-08T01:37:46.735Z,1.40
2019-03-08T01:38:46.703Z,1.30
2019-03-08T01:39:46.703Z,1.10
2019-03-08T01:40:46.740Z,1.30
2019-03-08T01:41:46.677Z,1.30
2019-03-08T01:42:46.694Z,1.10
2019-03-08T01:43:46.654Z,1.40
2019-03-08T01:44:46.642Z,1.20
2019-03-08T01:45:46.674Z,1.40
2019-03-08T01:46:54.197Z,1.20
2019-03-08T01:47:46.650Z,1.10
2019-03-08T01:48:46.616Z,1.10
2019-03-08T01:49:46.593Z,1.40
2019-03-08T01:50:46.639Z,1.40
2019-03-08T01:51:46.594Z,1.40
2019-03-08T01:52:46.564Z,1.00
2019-03-08T01:57:26.104Z,1.20
2019-03-08T01:59:36.455Z,1.20
2019-03-08T02:00:45.026Z,1.20
2019-03-08T02:01:44.929Z,1.50
2019-03-08T02:02:44.917Z,1.40
2019-03-08T02:03:46.104Z,1.20
2019-03-08T02:04:36.346Z,1.10
2019-03-08T02:05:36.372Z,1.20
2019-03-08T02:06:43.895Z,1.20
2019-03-08T02:07:44.041Z,1.40
2019-03-08T02:08:45.127Z,1.50
2019-03-08T02:09:46.271Z,1.40
2019-03-08T02:10:37.343Z,1.50
2019-03-08T02:11:43.850Z,1.90
2019-03-08T02:12:44.826Z,1.30
2019-03-08T02:13:36.305Z,1.70
2019-03-08T02:14:46.276Z,1.40
2019-03-08T02:15:46.108Z,1.90
2019-03-08T02:16:43.770Z,1.40
2019-03-08T02:17:43.776Z,1.50
2019-03-08T02:18:43.742Z,1.30
2019-03-08T02:19:46.448Z,1.40
2019-03-08T02:20:43.720Z,1.50
2019-03-08T02:21:44.099Z,1.60
2019-03-08T02:22:43.699Z,1.90
2019-03-08T02:23:36.188Z,1.50
2019-03-08T02:24:36.141Z,1.70
2019-03-08T02:29:06.878Z,1.40
2019-03-08T02:30:15.054Z,2.00
2019-03-08T02:31:06.805Z,1.80
2019-03-08T02:32:14.380Z,1.60
2019-03-08T02:33:15.319Z,2.00
2019-03-08T02:34:14.375Z,1.90
2019-03-08T02:35:16.657Z,2.50
2019-03-08T02:36:14.265Z,1.70
2019-03-08T02:37:15.300Z,1.80
2019-03-08T02:38:14.489Z,1.90
2019-03-08T02:39:06.763Z,1.90
2019-03-08T02:40:06.807Z,2.00
2019-03-08T02:41:06.746Z,2.20
2019-03-08T02:42:06.724Z,1.60
2019-03-08T02:43:06.653Z,1.50
2019-03-08T02:44:06.638Z,2.00
2019-03-08T02:45:06.678Z,2.00
2019-03-08T02:46:06.619Z,2.00
2019-03-08T02:47:06.606Z,1.90
2019-03-08T02:48:06.606Z,2.30
2019-03-08T02:49:06.621Z,1.90
2019-03-08T02:50:06.582Z,1.90
2019-03-08T02:51:06.587Z,2.10
2019-03-08T02:52:06.554Z,2.60
2019-03-08T02:53:06.562Z,1.80
2019-03-08T02:54:06.546Z,1.70
2019-03-08T02:55:06.517Z,1.90
2019-03-08T02:56:15.226Z,2.20
2019-03-08T02:57:14.138Z,2.00
2019-03-08T02:58:15.077Z,2.60
2019-03-08T02:59:15.104Z,2.00
2019-03-08T03:00:06.483Z,2.80
2019-03-08T03:01:06.503Z,2.10
2019-03-08T03:02:06.501Z,2.10
2019-03-08T03:03:06.462Z,1.90
2019-03-08T03:04:06.433Z,2.70
2019-03-08T03:05:06.494Z,2.50
2019-03-08T03:06:06.422Z,2.20
2019-03-08T03:07:06.440Z,2.00
2019-03-08T03:08:06.386Z,2.20
2019-03-08T03:09:06.374Z,2.00
2019-03-08T03:10:06.379Z,1.90
2019-03-08T03:11:06.379Z,2.20
2019-03-08T03:12:06.371Z,1.80
2019-03-08T03:13:06.339Z,2.40
2019-03-08T03:14:06.332Z,2.20
2019-03-08T03:15:06.303Z,1.80
2019-03-08T03:16:06.318Z,1.80
2019-03-08T03:17:06.335Z,2.10
2019-03-08T03:18:06.274Z,1.80
2019-03-08T03:19:06.264Z,2.50
2019-03-08T03:20:06.266Z,2.00
2019-03-08T03:21:06.262Z,1.60
2019-03-08T03:22:06.223Z,1.90
2019-03-08T03:23:06.320Z,2.00
2019-03-08T03:24:06.210Z,1.90
2019-03-08T03:25:06.236Z,1.80
2019-03-08T03:26:06.184Z,1.80
2019-03-08T03:27:06.203Z,2.10
2019-03-08T03:28:06.161Z,1.80
2019-03-08T03:29:06.176Z,1.60
2019-03-08T03:30:06.137Z,2.70
2019-03-08T03:31:06.143Z,1.70
2019-03-08T03:32:06.178Z,1.50
2019-03-08T03:33:06.107Z,2.30
2019-03-08T03:34:06.101Z,2.80
2019-03-08T03:35:06.109Z,2.50
2019-03-08T03:36:06.080Z,2.10
2019-03-08T03:37:06.063Z,1.60
2019-03-08T03:38:06.093Z,1.90
2019-03-08T03:39:06.059Z,1.70
2019-03-08T03:40:06.033Z,1.80
2019-03-08T03:41:06.055Z,1.30
2019-03-08T03:42:06.056Z,1.50
2019-03-08T03:43:06.014Z,1.40
2019-03-08T03:44:05.985Z,1.40
2019-03-08T03:45:05.983Z,1.50
2019-03-08T03:46:05.984Z,1.50
2019-03-08T03:47:05.992Z,1.80
2019-03-08T03:48:05.976Z,1.40
2019-03-08T03:49:05.936Z,1.50
2019-03-08T03:50:05.964Z,1.40
2019-03-08T03:51:05.954Z,1.50
2019-03-08T03:52:05.903Z,1.70
2019-03-08T03:53:05.911Z,1.60
2019-03-08T03:54:05.906Z,1.30
2019-03-08T03:55:05.863Z,1.50
2019-03-08T03:56:05.855Z,1.40
2019-03-08T03:57:05.866Z,1.50
2019-03-08T03:58:05.862Z,1.90
2019-03-08T03:59:05.924Z,1.90
2019-03-08T04:00:05.813Z,1.60
2019-03-08T04:01:05.806Z,1.80
2019-03-08T04:02:05.794Z,1.80
2019-03-08T04:03:05.806Z,2.00
2019-03-08T04:04:05.776Z,1.50
2019-03-08T04:05:05.803Z,1.90
2019-03-08T04:06:05.745Z,1.70
2019-03-08T04:07:05.735Z,1.90
2019-03-08T04:08:05.765Z,2.20
2019-03-08T04:09:05.722Z,2.70
2019-03-08T04:10:05.737Z,2.10
2019-03-08T04:11:05.707Z,2.10
2019-03-08T04:12:05.681Z,1.70
2019-03-08T04:13:05.667Z,1.70
2019-03-08T04:14:05.689Z,1.60
2019-03-08T04:15:05.655Z,1.60
2019-03-08T04:16:05.672Z,1.30
2019-03-08T04:17:05.632Z,1.40
2019-03-08T04:18:05.612Z,1.60
2019-03-08T04:19:05.622Z,1.60
2019-03-08T04:20:13.212Z,1.30
2019-03-08T04:21:05.597Z,1.70
2019-03-08T04:22:05.637Z,1.60
2019-03-08T04:23:05.573Z,1.80
2019-03-08T04:24:05.585Z,1.80
2019-03-08T04:25:05.575Z,1.50
2019-03-08T04:26:05.524Z,1.90
2019-03-08T04:27:05.579Z,2.00
2019-03-08T04:28:05.563Z,1.90
2019-03-08T04:29:05.555Z,2.20
2019-03-08T04:30:05.492Z,1.90
2019-03-08T04:31:05.483Z,2.00
2019-03-08T04:32:05.466Z,2.00
2019-03-08T04:33:05.456Z,2.20
2019-03-08T04:34:05.476Z,2.20
2019-03-08T04:35:05.444Z,2.20
2019-03-08T04:36:05.420Z,2.50
2019-03-08T04:37:05.408Z,2.40
2019-03-08T04:38:05.419Z,2.60
2019-03-08T04:39:05.418Z,2.90
2019-03-08T04:40:05.377Z,2.60
2019-03-08T04:41:05.384Z,2.90
2019-03-08T04:42:05.368Z,2.70
2019-03-08T04:43:05.367Z,2.90
2019-03-08T04:44:05.331Z,3.30
2019-03-08T04:45:05.392Z,3.20
2019-03-08T04:46:05.331Z,3.80
2019-03-08T04:47:05.391Z,3.00
2019-03-08T04:48:05.289Z,2.70
2019-03-08T04:49:05.285Z,3.40
2019-03-08T04:50:16.360Z,3.10
2019-03-08T04:51:12.904Z,2.80
2019-03-08T04:52:05.332Z,3.00
2019-03-08T04:53:05.297Z,2.90
2019-03-08T04:54:12.799Z,2.80
2019-03-08T04:55:05.260Z,3.10
2019-03-08T04:56:05.266Z,2.70
2019-03-08T04:57:05.281Z,2.70
2019-03-08T04:58:05.219Z,2.60
2019-03-08T04:59:05.225Z,2.70
2019-03-08T05:00:05.286Z,2.50
2019-03-08T05:01:05.162Z,3.00
2019-03-08T05:02:05.150Z,2.60
2019-03-08T05:03:05.125Z,2.90
2019-03-08T05:04:05.112Z,2.30
2019-03-08T05:05:05.170Z,2.30
2019-03-08T05:06:05.102Z,2.90
2019-03-08T05:07:05.135Z,2.20
2019-03-08T05:08:05.110Z,2.50
2019-03-08T05:09:05.063Z,2.50
2019-03-08T05:10:05.048Z,2.70
2019-03-08T05:11:05.078Z,2.30
2019-03-08T05:12:05.031Z,2.70
2019-03-08T05:13:05.015Z,2.40
2019-03-08T05:15:23.891Z,2.90
2019-03-08T05:16:23.821Z,2.80
2019-03-08T05:19:07.834Z,3.80
2019-03-08T05:20:07.768Z,3.10
2019-03-08T05:21:07.823Z,2.50
2019-03-08T05:22:07.714Z,2.00
2019-03-08T05:23:07.774Z,2.10
2019-03-08T05:24:07.686Z,1.80
2019-03-08T05:25:07.685Z,1.70
2019-03-08T05:26:08.245Z,1.70
2019-03-08T05:27:07.653Z,1.90
2019-03-08T05:28:07.929Z,2.30
2019-03-08T05:29:07.742Z,2.10
2019-03-08T05:30:07.731Z,3.10
2019-03-08T05:31:07.758Z,1.90
2019-03-08T05:32:07.724Z,1.80
2019-03-08T05:33:07.626Z,2.00
2019-03-08T05:34:07.586Z,1.70
2019-03-08T05:35:07.664Z,1.80
2019-03-08T05:36:07.574Z,1.70
2019-03-08T05:37:07.671Z,1.30
2019-03-08T05:38:07.631Z,1.50
2019-03-08T05:39:07.539Z,1.80
2019-03-08T05:40:07.676Z,1.70
2019-03-08T05:41:07.592Z,1.60
2019-03-08T05:42:07.541Z,1.60
2019-03-08T05:43:07.550Z,1.60
2019-03-08T05:44:07.521Z,2.10
2019-03-08T05:45:07.540Z,2.30
2019-03-08T05:47:43.262Z,2.80
2019-03-08T05:48:42.989Z,2.40
2019-03-08T05:49:42.947Z,1.90
2019-03-08T05:50:44.037Z,2.00
2019-03-08T05:51:53.072Z,1.80
2019-03-08T05:52:42.914Z,1.70
2019-03-08T05:53:43.012Z,1.70
2019-03-08T05:54:42.948Z,2.10
2019-03-08T05:55:42.959Z,1.70
2019-03-08T05:56:42.864Z,1.80
2019-03-08T05:57:42.921Z,2.20
2019-03-08T05:58:52.067Z,2.10
2019-03-08T05:59:42.836Z,2.50
2019-03-08T06:00:42.811Z,2.20
2019-03-08T06:01:42.850Z,2.30
2019-03-08T06:02:42.879Z,2.00
2019-03-08T06:03:42.778Z,2.10
2019-03-08T06:04:42.768Z,2.10
2019-03-08T06:05:42.781Z,2.10
2019-03-08T06:06:42.762Z,2.20
2019-03-08T06:07:42.845Z,3.00
2019-03-08T06:08:42.783Z,2.40
2019-03-08T06:09:42.722Z,2.10
2019-03-08T06:10:42.759Z,2.00
2019-03-08T06:11:42.717Z,2.20
2019-03-08T06:12:42.740Z,2.40
2019-03-08T06:13:42.712Z,2.20
2019-03-08T06:14:42.659Z,2.80
2019-03-08T06:15:42.689Z,2.40
2019-03-08T06:16:42.643Z,2.50
2019-03-08T06:17:42.693Z,2.00
2019-03-08T06:18:42.631Z,2.10
2019-03-08T06:20:53.921Z,2.60
2019-03-08T06:21:53.910Z,2.30
2019-03-08T06:22:53.871Z,2.40
2019-03-08T06:23:53.904Z,2.90
2019-03-08T06:24:53.812Z,2.40
2019-03-08T06:25:53.855Z,2.50
2019-03-08T06:26:53.798Z,2.30
2019-03-08T06:27:53.780Z,2.20
2019-03-08T06:28:53.791Z,2.60
2019-03-08T06:29:53.765Z,2.80
2019-03-08T06:30:53.753Z,3.30
2019-03-08T06:31:53.825Z,2.60
2019-03-08T06:32:53.732Z,2.70
2019-03-08T06:33:53.768Z,3.00
2019-03-08T06:34:53.853Z,3.10
2019-03-08T06:35:53.704Z,3.30
2019-03-08T06:36:53.691Z,3.40
2019-03-08T06:37:53.698Z,3.20
2019-03-08T06:38:53.682Z,3.10
2019-03-08T06:39:53.651Z,3.40
2019-03-08T06:40:53.681Z,3.60
2019-03-08T06:41:53.633Z,4.00
2019-03-08T06:42:53.673Z,3.70
2019-03-08T06:43:53.664Z,4.20
2019-03-08T06:44:53.741Z,4.60
2019-03-08T06:45:53.589Z,4.30
2019-03-08T06:46:53.579Z,4.10
2019-03-08T06:47:53.574Z,4.70
2019-03-08T06:48:53.589Z,4.90
2019-03-08T06:49:53.546Z,4.70
2019-03-08T06:50:53.551Z,4.50
2019-03-08T06:51:53.544Z,4.50
2019-03-08T06:52:53.519Z,4.20
2019-03-08T06:54:03.337Z,4.00
2019-03-08T06:54:53.493Z,4.30
2019-03-08T06:55:53.503Z,4.70
2019-03-08T06:56:53.468Z,4.10
2019-03-08T06:57:53.673Z,4.20
2019-03-08T06:58:53.636Z,4.10
2019-03-08T06:59:53.563Z,3.80
2019-03-08T07:00:53.461Z,4.40
2019-03-08T07:01:53.500Z,4.10
2019-03-08T07:02:53.407Z,4.70
2019-03-08T07:03:53.413Z,4.30
2019-03-08T07:04:53.391Z,4.50
2019-03-08T07:05:53.400Z,4.80
2019-03-08T07:06:53.380Z,4.20
2019-03-08T07:07:53.575Z,4.20
2019-03-08T07:08:53.356Z,4.00
2019-03-08T07:09:53.341Z,4.00
2019-03-08T07:10:53.374Z,3.80
2019-03-08T07:11:53.382Z,3.70
2019-03-08T07:13:02.461Z,4.10
2019-03-08T07:13:54.289Z,3.90
2019-03-08T07:14:53.282Z,4.20
2019-03-08T07:15:53.286Z,3.90
2019-03-08T07:16:53.283Z,3.90
2019-03-08T07:17:53.262Z,3.90
2019-03-08T07:18:53.243Z,3.80
2019-03-08T07:19:53.225Z,4.20
2019-03-08T07:20:53.220Z,4.20
2019-03-08T07:21:53.612Z,4.50
2019-03-08T07:22:53.192Z,4.50
2019-03-08T07:23:53.194Z,4.20
2019-03-08T07:24:53.216Z,4.20
2019-03-08T07:25:54.504Z,4.90
2019-03-08T07:26:53.181Z,4.80
2019-03-08T07:27:53.141Z,4.70
2019-03-08T07:28:53.153Z,5.00
2019-03-08T07:29:53.192Z,5.40
2019-03-08T07:30:58.014Z,5.00
2019-03-08T07:33:03.430Z,5.00
2019-03-08T07:34:03.351Z,4.70
2019-03-08T07:35:03.340Z,5.00
2019-03-08T07:36:03.346Z,4.90
2019-03-08T07:37:03.426Z,4.70
2019-03-08T07:38:03.304Z,5.40
2019-03-08T07:39:03.359Z,4.60
2019-03-08T07:40:03.294Z,4.80
2019-03-08T07:41:03.276Z,4.10
2019-03-08T07:42:03.297Z,5.40
2019-03-08T07:43:03.254Z,4.90
2019-03-08T07:44:03.243Z,4.70
2019-03-08T07:45:03.243Z,4.80
2019-03-08T07:46:03.247Z,4.70
2019-03-08T07:47:03.222Z,4.50
2019-03-08T07:48:03.191Z,4.60
2019-03-08T07:49:03.202Z,4.90
2019-03-08T07:50:03.186Z,4.80
2019-03-08T07:51:03.162Z,5.00
2019-03-08T07:52:03.233Z,4.80
2019-03-08T07:53:03.153Z,5.00
2019-03-08T07:54:03.131Z,4.30
2019-03-08T07:55:03.168Z,4.70
2019-03-08T07:56:03.112Z,4.50
2019-03-08T07:57:03.119Z,5.00
2019-03-08T07:58:03.089Z,4.90
2019-03-08T07:59:11.627Z,5.00
2019-03-08T08:00:03.072Z,4.90
2019-03-08T08:01:03.053Z,4.60
2019-03-08T08:02:03.085Z,4.70
2019-03-08T08:03:03.997Z,4.90
2019-03-08T08:04:03.020Z,4.90
2019-03-08T08:05:03.016Z,5.00
2019-03-08T08:06:03.005Z,4.30
2019-03-08T08:07:02.992Z,4.40
2019-03-08T08:08:03.043Z,5.20
2019-03-08T08:09:02.972Z,5.40
2019-03-08T08:10:02.964Z,4.30
2019-03-08T08:11:02.962Z,4.70
2019-03-08T08:12:02.940Z,4.60
2019-03-08T08:13:02.946Z,5.00
2019-03-08T08:14:02.914Z,5.00
2019-03-08T08:15:02.941Z,4.60
2019-03-08T08:16:02.890Z,4.30
2019-03-08T08:17:02.876Z,4.50
2019-03-08T08:18:02.901Z,4.90
2019-03-08T08:19:10.398Z,5.10
2019-03-08T08:20:02.851Z,5.60
2019-03-08T08:21:02.832Z,4.40
2019-03-08T08:22:02.846Z,4.70
2019-03-08T08:23:02.832Z,4.50
2019-03-08T08:24:02.875Z,4.80
2019-03-08T08:25:02.800Z,4.50
2019-03-08T08:26:02.787Z,5.80
2019-03-08T08:27:02.769Z,4.70
2019-03-08T08:28:02.817Z,4.60
2019-03-08T08:29:02.750Z,4.70
2019-03-08T08:30:02.752Z,5.50
2019-03-08T08:31:02.781Z,5.30
2019-03-08T08:32:02.765Z,4.90
2019-03-08T08:33:02.746Z,5.70
2019-03-08T08:34:02.703Z,5.30
2019-03-08T08:35:02.774Z,5.30
2019-03-08T08:36:02.723Z,5.10
2019-03-08T08:37:02.661Z,4.60
2019-03-08T08:38:02.716Z,5.50
2019-03-08T08:39:02.669Z,5.00
2019-03-08T08:40:02.625Z,5.40
2019-03-08T08:41:02.621Z,4.40
2019-03-08T08:42:02.615Z,5.20
2019-03-08T08:43:02.621Z,4.80
2019-03-08T08:44:02.592Z,4.90
2019-03-08T08:45:02.593Z,4.80
2019-03-08T08:46:02.818Z,5.20
2019-03-08T08:47:02.547Z,5.00
2019-03-08T08:48:02.542Z,5.30
2019-03-08T08:49:02.547Z,5.30
2019-03-08T08:50:02.517Z,5.00
2019-03-08T08:51:02.508Z,5.20
2019-03-08T08:52:02.531Z,5.50
2019-03-08T08:53:02.520Z,5.90
2019-03-08T08:54:11.180Z,6.40
2019-03-08T08:55:02.495Z,6.00
2019-03-08T08:56:02.450Z,5.40
2019-03-08T08:57:02.442Z,5.30
2019-03-08T08:58:02.437Z,5.50
2019-03-08T08:59:02.437Z,5.90
2019-03-08T09:00:02.412Z,5.90
2019-03-08T09:01:02.399Z,5.50
2019-03-08T09:02:02.433Z,5.60
2019-03-08T09:03:02.392Z,5.80
2019-03-08T09:04:02.380Z,6.40
2019-03-08T09:05:02.356Z,5.40
2019-03-08T09:06:02.346Z,5.30
2019-03-08T09:07:02.326Z,5.80
2019-03-08T09:08:02.317Z,5.90
2019-03-08T09:09:02.334Z,5.40
2019-03-08T09:10:02.295Z,5.60
2019-03-08T09:11:02.297Z,5.50
2019-03-08T09:12:02.276Z,5.10
2019-03-08T09:13:02.298Z,5.40
2019-03-08T09:14:02.270Z,5.10
2019-03-08T09:15:02.252Z,5.30
2019-03-08T09:16:02.233Z,5.60
2019-03-08T09:17:02.262Z,5.00
2019-03-08T09:18:02.208Z,5.50
2019-03-08T09:19:02.221Z,5.20
2019-03-08T09:20:02.219Z,5.50
2019-03-08T09:21:02.179Z,5.20
2019-03-08T09:22:10.564Z,5.30
2019-03-08T09:23:09.754Z,5.10
2019-03-08T09:24:10.813Z,5.20
2019-03-08T09:25:09.727Z,5.80
2019-03-08T09:26:02.122Z,5.60
2019-03-08T09:27:02.183Z,5.30
2019-03-08T09:28:02.106Z,5.10
2019-03-08T09:29:09.641Z,5.10
2019-03-08T09:30:02.114Z,5.70
2019-03-08T09:31:12.057Z,5.90
2019-03-08T09:32:09.655Z,4.80
2019-03-08T09:33:02.044Z,5.30
2019-03-08T09:34:09.627Z,5.40
2019-03-08T09:35:12.522Z,5.00
2019-03-08T09:36:09.077Z,5.40
2019-03-08T09:37:09.617Z,5.40
2019-03-08T09:38:09.545Z,5.40
2019-03-08T09:39:10.581Z,5.90
2019-03-08T09:40:12.744Z,5.30
2019-03-08T09:41:09.497Z,5.00
2019-03-08T09:42:09.507Z,4.90
2019-03-08T09:43:10.503Z,5.80
2019-03-08T09:44:09.511Z,5.80
2019-03-08T09:45:11.934Z,5.10
2019-03-08T09:46:10.465Z,5.40
2019-03-08T09:47:09.485Z,6.10
2019-03-08T09:48:09.432Z,5.70
2019-03-08T09:49:09.423Z,5.90
2019-03-08T09:50:10.766Z,6.10
2019-03-08T09:51:10.689Z,6.10
2019-03-08T09:52:10.504Z,5.80
2019-03-08T09:53:09.396Z,5.80
2019-03-08T09:54:10.404Z,5.70
2019-03-08T09:55:10.429Z,5.20
2019-03-08T09:56:10.644Z,5.30
2019-03-08T09:57:11.610Z,5.70
2019-03-08T09:58:10.349Z,6.10
2019-03-08T09:59:09.337Z,5.70
2019-03-08T10:00:09.723Z,6.30
2019-03-08T10:01:16.709Z,5.80
2019-03-08T10:02:53.529Z,5.30
2019-03-08T10:05:10.827Z,4.70
2019-03-08T10:06:10.786Z,5.60
2019-03-08T10:07:10.777Z,6.70
2019-03-08T10:08:10.763Z,5.80
2019-03-08T10:09:10.749Z,5.60
2019-03-08T10:10:10.741Z,5.60
2019-03-08T10:11:19.528Z,5.30
2019-03-08T10:12:10.803Z,5.80
2019-03-08T10:13:10.707Z,5.70
2019-03-08T10:14:10.697Z,5.10
2019-03-08T10:15:10.716Z,5.40
2019-03-08T10:16:10.699Z,5.40
2019-03-08T10:17:10.720Z,5.00
2019-03-08T10:18:11.563Z,5.00
2019-03-08T10:19:10.653Z,4.80
2019-03-08T10:20:19.462Z,4.30
2019-03-08T10:21:10.667Z,4.50
2019-03-08T10:22:10.649Z,4.70
2019-03-08T10:23:19.502Z,4.40
2019-03-08T10:24:11.590Z,3.90
2019-03-08T10:25:10.654Z,4.30
2019-03-08T10:26:10.594Z,4.30
2019-03-08T10:27:10.570Z,4.40
2019-03-08T10:28:10.553Z,4.10
2019-03-08T10:29:10.536Z,4.40
2019-03-08T10:30:10.530Z,4.10
2019-03-08T10:31:10.556Z,4.20
2019-03-08T10:32:10.512Z,3.60
2019-03-08T10:33:10.557Z,3.40
2019-03-08T10:34:10.505Z,4.00
2019-03-08T10:35:10.480Z,3.30
2019-03-08T10:36:10.510Z,3.30
2019-03-08T10:37:10.465Z,3.50
2019-03-08T10:38:10.454Z,3.10
2019-03-08T10:39:10.436Z,2.80
2019-03-08T10:40:10.441Z,3.00
2019-03-08T10:41:10.450Z,3.80
2019-03-08T10:42:10.442Z,2.80
2019-03-08T10:43:10.373Z,2.90
2019-03-08T10:44:12.027Z,2.80
2019-03-08T10:45:10.395Z,2.50
2019-03-08T10:46:20.682Z,2.30
2019-03-08T10:47:10.356Z,2.50
2019-03-08T10:48:10.321Z,2.70
2019-03-08T10:49:10.311Z,3.10
2019-03-08T10:50:10.298Z,2.90
2019-03-08T10:51:10.308Z,2.80
2019-03-08T10:52:19.214Z,2.40
2019-03-08T10:53:17.801Z,2.50
2019-03-08T10:54:18.836Z,2.60
2019-03-08T10:55:10.247Z,2.50
2019-03-08T10:56:17.779Z,2.90
2019-03-08T10:57:18.863Z,3.00
2019-03-08T10:58:17.768Z,2.70
2019-03-08T10:59:17.813Z,2.80
2019-03-08T11:00:17.749Z,2.90
2019-03-08T11:01:10.183Z,2.70
2019-03-08T11:02:10.212Z,2.70
2019-03-08T11:03:10.165Z,2.50
2019-03-08T11:04:10.158Z,2.60
2019-03-08T11:05:10.142Z,2.60
2019-03-08T11:06:10.174Z,2.90
2019-03-08T11:07:10.121Z,3.10
2019-03-08T11:08:10.130Z,3.30
2019-03-08T11:09:10.123Z,3.00
2019-03-08T11:10:10.113Z,3.20
2019-03-08T11:11:10.071Z,2.70
2019-03-08T11:12:10.057Z,2.80
2019-03-08T11:13:10.067Z,3.40
2019-03-08T11:14:10.065Z,3.50
2019-03-08T11:15:24.102Z,3.00
2019-03-08T11:17:32.476Z,2.60
2019-03-08T11:18:40.991Z,3.00
2019-03-08T11:19:39.984Z,3.10
2019-03-08T11:20:40.981Z,3.40
2019-03-08T11:21:40.074Z,3.10
2019-03-08T11:22:41.183Z,3.20
2019-03-08T11:23:32.411Z,3.00
2019-03-08T11:24:32.382Z,2.90
2019-03-08T11:25:35.218Z,3.30
2019-03-08T11:26:32.365Z,3.40
2019-03-08T11:27:32.347Z,3.20
2019-03-08T11:28:32.373Z,3.40
2019-03-08T11:29:32.326Z,3.00
2019-03-08T11:30:32.315Z,3.60
2019-03-08T11:31:32.303Z,3.20
2019-03-08T11:32:32.319Z,3.40
2019-03-08T11:33:32.299Z,3.30
2019-03-08T11:34:32.270Z,3.60
2019-03-08T11:35:32.259Z,3.80
2019-03-08T11:36:32.248Z,3.60
2019-03-08T11:37:32.238Z,4.10
2019-03-08T11:38:32.255Z,3.80
2019-03-08T11:39:32.249Z,4.40
2019-03-08T11:40:32.207Z,3.80
2019-03-08T11:41:32.194Z,3.60
2019-03-08T11:42:32.183Z,3.80
2019-03-08T11:43:32.194Z,3.80
2019-03-08T11:44:32.160Z,3.60
2019-03-08T11:45:32.172Z,3.50
2019-03-08T11:46:32.137Z,3.80
2019-03-08T11:47:32.129Z,3.80
2019-03-08T11:48:32.137Z,3.80
2019-03-08T11:49:32.113Z,3.80
2019-03-08T11:50:32.099Z,4.20
2019-03-08T11:51:32.103Z,3.80
2019-03-08T11:52:32.091Z,4.20
2019-03-08T11:53:32.080Z,4.00
2019-03-08T11:54:40.358Z,4.10
2019-03-08T11:55:33.047Z,3.90
2019-03-08T11:56:32.027Z,4.40
2019-03-08T11:57:32.023Z,4.80
2019-03-08T11:58:32.067Z,4.90
2019-03-08T11:59:31.996Z,4.60
2019-03-08T12:00:31.986Z,4.80
2019-03-08T12:01:31.975Z,4.20
2019-03-08T12:02:37.808Z,4.90
2019-03-08T12:03:32.971Z,4.60
2019-03-08T12:04:31.955Z,4.30
2019-03-08T12:05:31.932Z,4.90
2019-03-08T12:06:31.921Z,4.50
2019-03-08T12:07:31.905Z,5.00
2019-03-08T12:08:31.897Z,4.50
2019-03-08T12:09:31.909Z,4.50
2019-03-08T12:10:31.897Z,4.70
2019-03-08T12:11:31.868Z,4.80
2019-03-08T12:12:31.866Z,4.30
2019-03-08T12:13:32.354Z,4.50
2019-03-08T12:14:31.848Z,4.00
2019-03-08T12:15:31.818Z,4.30
2019-03-08T12:16:31.808Z,4.80
2019-03-08T12:17:31.811Z,5.50
2019-03-08T12:18:31.787Z,5.00
2019-03-08T12:19:31.795Z,4.60
2019-03-08T12:20:31.765Z,4.60
2019-03-08T12:21:31.753Z,4.80
2019-03-08T12:22:31.742Z,4.80
2019-03-08T12:23:31.748Z,4.30
2019-03-08T12:24:31.740Z,4.60
2019-03-08T12:25:31.713Z,4.60
2019-03-08T12:26:31.700Z,4.50
2019-03-08T12:27:31.690Z,4.10
2019-03-08T12:28:31.678Z,4.10
2019-03-08T12:29:31.699Z,4.80
2019-03-08T12:30:31.659Z,4.60
2019-03-08T12:31:31.646Z,4.40
2019-03-08T12:32:31.631Z,4.50
2019-03-08T12:33:31.623Z,4.50
2019-03-08T12:34:31.641Z,4.00
2019-03-08T12:35:31.636Z,3.90
2019-03-08T12:36:31.593Z,3.90
2019-03-08T12:37:31.587Z,4.40
2019-03-08T12:38:31.568Z,3.50
2019-03-08T12:39:31.560Z,3.70
2019-03-08T12:40:31.575Z,3.70
2019-03-08T12:41:31.539Z,3.60
2019-03-08T12:42:31.558Z,3.30
2019-03-08T12:43:31.513Z,3.60
2019-03-08T12:44:31.507Z,3.60
2019-03-08T12:59:10.072Z,5.10
2019-03-08T13:00:10.047Z,4.90
2019-03-08T13:01:10.091Z,4.30
2019-03-08T13:14:28.017Z,5.10
2019-03-08T13:15:27.981Z,3.40
2019-03-08T13:16:28.041Z,3.40
2019-03-08T13:17:27.959Z,3.40
2019-03-08T13:18:27.953Z,3.20
2019-03-08T13:19:27.948Z,3.10
2019-03-08T13:20:35.476Z,3.50
2019-03-08T13:21:27.941Z,3.30
2019-03-08T13:22:27.909Z,2.90
2019-03-08T13:23:27.906Z,3.50
2019-03-08T13:24:27.886Z,3.30
2019-03-08T13:25:28.497Z,3.40
2019-03-08T13:26:27.895Z,3.70
2019-03-08T13:27:27.857Z,3.50
2019-03-08T13:28:27.842Z,3.60
2019-03-08T13:29:27.831Z,3.40
2019-03-08T13:30:27.817Z,3.40
2019-03-08T13:31:27.810Z,3.50
2019-03-08T13:32:27.812Z,3.50
2019-03-08T13:33:27.784Z,3.40
2019-03-08T13:34:27.777Z,3.20
2019-03-08T13:35:27.769Z,3.40
2019-03-08T13:36:27.756Z,3.20
2019-03-08T13:37:27.807Z,3.00
2019-03-08T13:38:27.732Z,3.20
2019-03-08T13:39:27.718Z,3.10
2019-03-08T13:40:27.715Z,3.00
2019-03-08T13:41:27.711Z,3.00
2019-03-08T13:42:27.709Z,2.90
2019-03-08T13:43:27.752Z,3.40
2019-03-08T13:44:27.665Z,2.70
2019-03-08T13:45:27.651Z,3.20
2019-03-08T13:46:27.642Z,2.50
2019-03-08T13:47:27.633Z,2.70
2019-03-08T13:48:27.638Z,2.70
2019-03-08T13:49:27.635Z,2.30
2019-03-08T13:50:27.624Z,3.10
2019-03-08T13:51:27.584Z,2.90
2019-03-08T13:52:27.574Z,2.60
2019-03-08T13:53:27.592Z,2.50
2019-03-08T13:54:27.572Z,2.40
2019-03-08T13:55:27.543Z,2.10
2019-03-08T13:56:27.570Z,2.70
2019-03-08T13:57:27.522Z,2.00
2019-03-08T13:58:27.535Z,2.70
2019-03-08T13:59:27.498Z,2.10
2019-03-08T14:00:27.488Z,2.40
2019-03-08T14:01:27.489Z,2.30
2019-03-08T14:02:27.515Z,2.20
2019-03-08T14:03:27.495Z,2.30
2019-03-08T14:04:27.463Z,2.20